| time (UTC) | temp C | wind direction | speed KPH | gust KPH | rain 1hr cm | rain 24hr cm | rain mn cm | humidity % | barometer mb |
| 20260505150343 | 0 | 306 | 0.0 | 0.0 | 0.00 | 0.03 | 0.00 | 92 | 1007.9 |
| 20260505130107 | 2 | 103 | 11.3 | 17.7 | 0.00 | 0.03 | 0.00 | 80 | 1007.3 |
| 20260505124314 | 2 | 86 | 9.7 | 19.3 | 0.00 | 0.03 | 0.00 | 79 | 1007.0 |
| 20260505123313 | 2 | 100 | 9.7 | 25.7 | 0.00 | 0.03 | 0.00 | 78 | 1006.7 |
| 20260505120315 | 2 | 153 | 9.7 | 19.3 | 0.00 | 0.03 | 0.00 | 78 | 1006.6 |
| 20260505115814 | 3 | 95 | 9.7 | 19.3 | 0.00 | 0.03 | 0.00 | 77 | 1006.6 |
| 20260505112103 | 2 | 155 | 3.2 | 8.0 | 0.00 | 0.03 | 0.00 | 76 | 1006.7 |
| 20260505111601 | 2 | 150 | 3.2 | 9.7 | 0.00 | 0.03 | 0.00 | 76 | 1006.7 |
| 20260505111101 | 2 | 140 | 1.6 | 9.7 | 0.00 | 0.03 | 0.00 | 76 | 1006.7 |
| 20260505110601 | 2 | 135 | 0.0 | 9.7 | 0.00 | 0.03 | 0.00 | 76 | 1006.7 |
| 20260505102103 | 3 | 144 | 1.6 | 11.3 | 0.00 | 0.03 | 0.00 | 73 | 1006.6 |
| 20260505101804 | 3 | 104 | 3.2 | 11.3 | 0.00 | 0.03 | 0.00 | 72 | 1006.5 |
| 20260505101102 | 3 | 84 | 3.2 | 11.3 | 0.00 | 0.03 | 0.00 | 72 | 1006.5 |
| 20260505100602 | 3 | 128 | 3.2 | 12.9 | 0.00 | 0.03 | 0.00 | 72 | 1006.6 |
| 20260505100104 | 3 | 103 | 1.6 | 12.9 | 0.00 | 0.03 | 0.00 | 71 | 1006.5 |
| 20260505095604 | 3 | 119 | 1.6 | 9.7 | 0.00 | 0.03 | 0.00 | 70 | 1006.5 |
| 20260505095102 | 3 | 140 | 1.6 | 9.7 | 0.00 | 0.03 | 0.00 | 70 | 1006.5 |
| 20260505094602 | 3 | 149 | 3.2 | 11.3 | 0.00 | 0.03 | 0.00 | 69 | 1006.6 |
| 20260505094102 | 3 | 74 | 4.8 | 11.3 | 0.00 | 0.03 | 0.00 | 69 | 1006.5 |
| 20260505093603 | 3 | 86 | 3.2 | 9.7 | 0.00 | 0.03 | 0.00 | 69 | 1006.4 |
| 20260505093102 | 3 | 112 | 3.2 | 9.7 | 0.00 | 0.03 | 0.00 | 68 | 1006.4 |
| 20260505092758 | 3 | 99 | 4.8 | 9.7 | 0.00 | 0.03 | 0.00 | 68 | 1006.3 |
| 20260505092102 | 3 | 153 | 6.4 | 16.1 | 0.00 | 0.03 | 0.00 | 68 | 1006.3 |
| 20260505091604 | 3 | 87 | 8.0 | 16.1 | 0.00 | 0.03 | 0.00 | 68 | 1006.3 |
| 20260505091300 | 3 | 189 | 3.2 | 16.1 | 0.00 | 0.03 | 0.00 | 68 | 1006.3 |
| 20260505090601 | 3 | 93 | 3.2 | 11.3 | 0.00 | 0.03 | 0.00 | 68 | 1006.3 |
| 20260505090100 | 3 | 154 | 3.2 | 11.3 | 0.00 | 0.03 | 0.00 | 68 | 1006.3 |
| 20260505085600 | 3 | 138 | 1.6 | 16.1 | 0.00 | 0.03 | 0.00 | 67 | 1006.1 |
| 20260505085100 | 4 | 142 | 0.0 | 16.1 | 0.00 | 0.03 | 0.00 | 67 | 1006.1 |
| 20260505084600 | 4 | 113 | 4.8 | 16.1 | 0.00 | 0.03 | 0.00 | 66 | 1006.1 |
| 20260505084100 | 4 | 88 | 6.4 | 19.3 | 0.00 | 0.03 | 0.00 | 65 | 1006.0 |
| 20260505083601 | 5 | 110 | 6.4 | 19.3 | 0.00 | 0.03 | 0.00 | 65 | 1006.1 |
| 20260505083254 | 5 | 107 | 6.4 | 17.7 | 0.00 | 0.03 | 0.00 | 65 | 1006.1 |
| 20260505082601 | 5 | 84 | 1.6 | 11.3 | 0.00 | 0.03 | 0.00 | 66 | 1006.1 |
| 20260505082100 | 5 | 165 | 3.2 | 11.3 | 0.00 | 0.03 | 0.00 | 66 | 1006.1 |
| 20260505081602 | 5 | 109 | 6.4 | 14.5 | 0.00 | 0.03 | 0.00 | 66 | 1006.1 |
| 20260505081100 | 5 | 81 | 6.4 | 14.5 | 0.00 | 0.03 | 0.00 | 67 | 1006.1 |
| 20260505080601 | 5 | 93 | 8.0 | 20.9 | 0.00 | 0.03 | 0.00 | 67 | 1006.1 |
| 20260505080100 | 5 | 105 | 8.0 | 20.9 | 0.00 | 0.03 | 0.00 | 67 | 1006.3 |
| 20260505075600 | 5 | 200 | 3.2 | 14.5 | 0.00 | 0.03 | 0.00 | 67 | 1006.4 |
| 20260505075100 | 5 | 198 | 1.6 | 9.7 | 0.00 | 0.03 | 0.00 | 67 | 1006.4 |
| 20260505074752 | 5 | 209 | 3.2 | 12.9 | 0.00 | 0.03 | 0.00 | 66 | 1006.4 |
| 20260505074257 | 5 | 145 | 4.8 | 14.5 | 0.00 | 0.03 | 0.00 | 66 | 1006.5 |
| 20260505073600 | 5 | 63 | 4.8 | 14.5 | 0.00 | 0.03 | 0.00 | 66 | 1006.5 |
| 20260505073101 | 5 | 101 | 6.4 | 17.7 | 0.00 | 0.03 | 0.00 | 66 | 1006.4 |
| 20260505072600 | 6 | 83 | 9.7 | 17.7 | 0.00 | 0.03 | 0.00 | 65 | 1006.3 |
| 20260505072103 | 6 | 59 | 9.7 | 20.9 | 0.00 | 0.03 | 0.00 | 66 | 1006.4 |
| 20260505071602 | 6 | 72 | 9.7 | 20.9 | 0.00 | 0.03 | 0.00 | 66 | 1006.4 |
| 20260505071102 | 6 | 68 | 9.7 | 20.9 | 0.00 | 0.03 | 0.00 | 67 | 1006.3 |
| 20260505070602 | 6 | 53 | 9.7 | 20.9 | 0.00 | 0.03 | 0.00 | 67 | 1006.3 |
| 20260505070242 | 6 | 46 | 9.7 | 19.3 | 0.00 | 0.03 | 0.00 | 68 | 1006.3 |
| 20260505065601 | 6 | 40 | 9.7 | 19.3 | 0.00 | 0.03 | 0.00 | 68 | 1006.3 |
| 20260505065102 | 6 | 32 | 11.3 | 22.5 | 0.00 | 0.03 | 0.00 | 68 | 1006.3 |
| 20260505064602 | 6 | 12 | 9.7 | 22.5 | 0.00 | 0.03 | 0.00 | 69 | 1006.3 |
| 20260505064243 | 6 | 14 | 9.7 | 17.7 | 0.00 | 0.03 | 0.00 | 69 | 1006.4 |
| 20260505063601 | 6 | 333 | 9.7 | 17.7 | 0.00 | 0.03 | 0.00 | 71 | 1006.4 |
| 20260505063101 | 6 | 337 | 8.0 | 17.7 | 0.00 | 0.03 | 0.00 | 72 | 1006.4 |
| 20260505062601 | 6 | 14 | 8.0 | 17.7 | 0.00 | 0.03 | 0.00 | 70 | 1006.4 |
| 20260505062242 | 6 | 62 | 6.4 | 17.7 | 0.00 | 0.03 | 0.00 | 70 | 1006.3 |
| 20260505061602 | 6 | 69 | 6.4 | 14.5 | 0.00 | 0.03 | 0.00 | 71 | 1006.4 |
| 20260505061103 | 6 | 17 | 11.3 | 14.5 | 0.00 | 0.03 | 0.00 | 71 | 1006.3 |
| 20260505060602 | 6 | 53 | 11.3 | 20.9 | 0.00 | 0.03 | 0.00 | 70 | 1006.3 |
| 20260505055727 | 7 | 37 | 11.3 | 20.9 | 0.00 | 0.03 | 0.03 | 70 | 1006.3 |
| 20260505055101 | 7 | 54 | 9.7 | 20.9 | 0.00 | 0.03 | 0.03 | 70 | 1006.1 |
| 20260505054601 | 7 | 63 | 9.7 | 20.9 | 0.00 | 0.03 | 0.03 | 70 | 1006.1 |
| 20260505054101 | 7 | 48 | 11.3 | 20.9 | 0.00 | 0.03 | 0.03 | 69 | 1006.0 |
| 20260505053603 | 7 | 59 | 9.7 | 16.1 | 0.03 | 0.03 | 0.03 | 71 | 1005.9 |
| 20260505053226 | 8 | 65 | 11.3 | 17.7 | 0.03 | 0.03 | 0.03 | 68 | 1006.1 |
| 20260505052558 | 8 | 31 | 11.3 | 17.7 | 0.03 | 0.03 | 0.03 | 70 | 1006.3 |
| 20260505052057 | 8 | 73 | 9.7 | 16.1 | 0.03 | 0.03 | 0.03 | 70 | 1006.0 |
| 20260505051557 | 8 | 79 | 9.7 | 16.1 | 0.03 | 0.03 | 0.03 | 70 | 1005.9 |
| 20260505051058 | 8 | 46 | 8.0 | 16.1 | 0.03 | 0.03 | 0.03 | 69 | 1006.0 |
| 20260505050558 | 8 | 63 | 11.3 | 30.6 | 0.03 | 0.03 | 0.03 | 69 | 1006.1 |
| 20260505050220 | 8 | 94 | 12.9 | 30.6 | 0.03 | 0.03 | 0.03 | 69 | 1006.1 |
| 20260505041556 | 10 | 63 | 16.1 | 25.7 | 0.00 | 0.00 | 0.00 | 46 | 1006.0 |
| 20260505041056 | 11 | 59 | 17.7 | 30.6 | 0.00 | 0.00 | 0.00 | 46 | 1005.9 |
| 20260505040555 | 11 | 94 | 17.7 | 30.6 | 0.00 | 0.00 | 0.00 | 45 | 1005.7 |
| 20260505040056 | 11 | 72 | 16.1 | 33.8 | 0.00 | 0.00 | 0.00 | 46 | 1005.5 |
| 20260505035556 | 11 | 53 | 9.7 | 33.8 | 0.00 | 0.00 | 0.00 | 46 | 1005.5 |
| 20260505035055 | 11 | 92 | 4.8 | 12.9 | 0.00 | 0.00 | 0.00 | 54 | 1005.3 |
| 20260505034557 | 11 | 105 | 6.4 | 16.1 | 0.00 | 0.00 | 0.00 | 53 | 1005.2 |
| 20260505034052 | 11 | 162 | 8.0 | 16.1 | 0.00 | 0.00 | 0.00 | 54 | 1004.9 |
| 20260505033719 | 11 | 186 | 11.3 | 24.1 | 0.00 | 0.00 | 0.00 | 55 | 1004.8 |
| 20260505033052 | 11 | 190 | 12.9 | 38.6 | 0.00 | 0.00 | 0.00 | 53 | 1004.8 |
| 20260505032551 | 11 | 267 | 14.5 | 38.6 | 0.00 | 0.00 | 0.00 | 49 | 1004.7 |
| 20260505032051 | 12 | 120 | 24.1 | 53.1 | 0.00 | 0.00 | 0.00 | 47 | 1004.8 |
| 20260505031715 | 12 | 54 | 20.9 | 53.1 | 0.00 | 0.00 | 0.00 | 45 | 1004.6 |
| 20260505031052 | 13 | 123 | 16.1 | 35.4 | 0.00 | 0.00 | 0.00 | 38 | 1004.1 |
| 20260505030551 | 13 | 61 | 19.3 | 32.2 | 0.00 | 0.00 | 0.00 | 37 | 1004.1 |
| 20260505030052 | 13 | 69 | 19.3 | 33.8 | 0.00 | 0.00 | 0.00 | 36 | 1004.0 |
| 20260505025716 | 13 | 65 | 19.3 | 33.8 | 0.00 | 0.00 | 0.00 | 36 | 1003.8 |
| 20260505025051 | 13 | 83 | 20.9 | 38.6 | 0.00 | 0.00 | 0.00 | 35 | 1003.7 |
| 20260505024550 | 13 | 95 | 20.9 | 38.6 | 0.00 | 0.00 | 0.00 | 35 | 1003.5 |
| 20260505024050 | 13 | 98 | 19.3 | 35.4 | 0.00 | 0.00 | 0.00 | 35 | 1003.5 |
| 20260505023549 | 13 | 60 | 20.9 | 32.2 | 0.00 | 0.00 | 0.00 | 35 | 1003.2 |
| 20260505023218 | 13 | 92 | 27.4 | 45.1 | 0.00 | 0.00 | 0.00 | 35 | 1003.0 |
| 20260505022549 | 13 | 98 | 29.0 | 45.1 | 0.00 | 0.00 | 0.00 | 34 | 1003.0 |
| 20260505022049 | 14 | 90 | 27.4 | 45.1 | 0.00 | 0.00 | 0.00 | 34 | 1002.8 |
| 20260505021549 | 14 | 61 | 27.4 | 45.1 | 0.00 | 0.00 | 0.00 | 34 | 1002.6 |
| 20260505021218 | 14 | 88 | 30.6 | 45.1 | 0.00 | 0.00 | 0.00 | 33 | 1002.5 |
| 20260505020537 | 15 | 71 | 29.0 | 51.5 | 0.00 | 0.00 | 0.00 | 32 | 1002.3 |
| 20260505020031 | 15 | 91 | 25.7 | 51.5 | 0.00 | 0.00 | 0.00 | 31 | 1002.0 |
| 20260505015532 | 16 | 69 | 19.3 | 41.8 | 0.00 | 0.00 | 0.00 | 30 | 1002.2 |
| 20260505015031 | 16 | 68 | 12.9 | 25.7 | 0.00 | 0.00 | 0.00 | 24 | 1002.0 |
| 20260505014717 | 16 | 95 | 8.0 | 19.3 | 0.00 | 0.00 | 0.00 | 24 | 1002.0 |
| 20260505014031 | 16 | 65 | 4.8 | 14.5 | 0.00 | 0.00 | 0.00 | 24 | 1002.2 |
| 20260505013717 | 16 | 342 | 4.8 | 14.5 | 0.00 | 0.00 | 0.00 | 24 | 1002.3 |
| 20260505013032 | 16 | 63 | 9.7 | 29.0 | 0.00 | 0.00 | 0.00 | 24 | 1002.2 |
| 20260505012531 | 17 | 56 | 14.5 | 29.0 | 0.00 | 0.00 | 0.00 | 23 | 1002.3 |
| 20260505012031 | 17 | 34 | 17.7 | 33.8 | 0.00 | 0.00 | 0.00 | 22 | 1002.2 |
| 20260505011531 | 17 | 30 | 19.3 | 33.8 | 0.00 | 0.00 | 0.00 | 22 | 1001.9 |
| 20260505011030 | 17 | 20 | 19.3 | 33.8 | 0.00 | 0.00 | 0.00 | 22 | 1001.8 |
| 20260505010717 | 17 | 57 | 17.7 | 35.4 | 0.00 | 0.00 | 0.00 | 22 | 1001.8 |
| 20260505010030 | 17 | 26 | 17.7 | 35.4 | 0.00 | 0.00 | 0.00 | 22 | 1001.8 |
| 20260505005529 | 17 | 37 | 20.9 | 37.0 | 0.00 | 0.00 | 0.00 | 21 | 1001.8 |
| 20260505005215 | 18 | 323 | 19.3 | 37.0 | 0.00 | 0.00 | 0.00 | 21 | 1001.7 |
| 20260505004715 | 18 | 30 | 12.9 | 35.4 | 0.00 | 0.00 | 0.00 | 20 | 1001.7 |
| 20260505004028 | 18 | 22 | 9.7 | 19.3 | 0.00 | 0.00 | 0.00 | 18 | 1001.7 |
| 20260505003530 | 19 | 44 | 11.3 | 14.5 | 0.00 | 0.00 | 0.00 | 18 | 1001.5 |
| 20260505003031 | 19 | 336 | 11.3 | 29.0 | 0.00 | 0.00 | 0.00 | 18 | 1001.7 |
| 20260505002529 | 20 | 335 | 12.9 | 29.0 | 0.00 | 0.00 | 0.00 | 17 | 1001.5 |
| 20260505002029 | 20 | 308 | 11.3 | 29.0 | 0.00 | 0.00 | 0.00 | 17 | 1001.5 |
| 20260505001712 | 20 | 269 | 9.7 | 29.0 | 0.00 | 0.00 | 0.00 | 17 | 1001.4 |
| 20260505001029 | 20 | 311 | 11.3 | 19.3 | 0.00 | 0.00 | 0.00 | 16 | 1001.5 |
| 20260505000530 | 20 | 299 | 11.3 | 19.3 | 0.00 | 0.00 | 0.00 | 17 | 1001.7 |
| 20260505000030 | 20 | 288 | 11.3 | 19.3 | 0.00 | 0.00 | 0.00 | 17 | 1001.5 |
| 20260504235530 | 20 | 23 | 9.7 | 20.9 | 0.00 | 0.00 | 0.00 | 17 | 1001.5 |
| 20260504235030 | 20 | 290 | 9.7 | 20.9 | 0.00 | 0.00 | 0.00 | 17 | 1001.5 |
| 20260504234530 | 19 | 277 | 11.3 | 20.9 | 0.00 | 0.00 | 0.00 | 17 | 1001.7 |
| 20260504234214 | 20 | 337 | 9.7 | 20.9 | 0.00 | 0.00 | 0.00 | 17 | 1001.7 |
| 20260504233530 | 20 | 49 | 8.0 | 17.7 | 0.00 | 0.00 | 0.00 | 17 | 1001.5 |
| 20260504233030 | 20 | 333 | 11.3 | 33.8 | 0.00 | 0.00 | 0.00 | 17 | 1001.5 |
| 20260504232530 | 19 | 41 | 17.7 | 33.8 | 0.00 | 0.00 | 0.00 | 17 | 1001.5 |
| 20260504232216 | 19 | 21 | 19.3 | 33.8 | 0.00 | 0.00 | 0.00 | 18 | 1001.5 |
| 20260504231715 | 20 | 40 | 16.1 | 33.8 | 0.00 | 0.00 | 0.00 | 17 | 1001.5 |
| 20260504231032 | 20 | 34 | 17.7 | 29.0 | 0.00 | 0.00 | 0.00 | 17 | 1001.5 |
| 20260504230531 | 20 | 305 | 17.7 | 30.6 | 0.00 | 0.00 | 0.00 | 17 | 1001.5 |
| 20260504230031 | 20 | 333 | 14.5 | 32.2 | 0.00 | 0.00 | 0.00 | 16 | 1001.5 |
| 20260504225531 | 20 | 347 | 11.3 | 32.2 | 0.00 | 0.00 | 0.00 | 16 | 1001.5 |
| 20260504225030 | 20 | 301 | 9.7 | 20.9 | 0.00 | 0.00 | 0.00 | 16 | 1001.4 |
| 20260504224530 | 20 | 317 | 11.3 | 24.1 | 0.00 | 0.00 | 0.00 | 16 | 1001.4 |
| 20260504224030 | 20 | 340 | 12.9 | 25.7 | 0.00 | 0.00 | 0.00 | 16 | 1001.7 |
| 20260504223530 | 20 | 309 | 11.3 | 25.7 | 0.00 | 0.00 | 0.00 | 15 | 1001.5 |
| 20260504223031 | 20 | 342 | 9.7 | 24.1 | 0.00 | 0.00 | 0.00 | 16 | 1001.5 |
| 20260504222530 | 20 | 278 | 14.5 | 32.2 | 0.00 | 0.00 | 0.00 | 16 | 1001.7 |
| 20260504222216 | 20 | 26 | 17.7 | 35.4 | 0.00 | 0.00 | 0.00 | 15 | 1001.7 |
| 20260504221530 | 20 | 317 | 14.5 | 35.4 | 0.00 | 0.00 | 0.00 | 15 | 1001.7 |
| 20260504221030 | 20 | 42 | 11.3 | 22.5 | 0.00 | 0.00 | 0.00 | 17 | 1001.8 |
| 20260504220530 | 20 | 328 | 14.5 | 24.1 | 0.00 | 0.00 | 0.00 | 17 | 1001.8 |
| 20260504220029 | 20 | 332 | 14.5 | 24.1 | 0.00 | 0.00 | 0.00 | 17 | 1001.9 |
| 20260504215529 | 20 | 0 | 9.7 | 22.5 | 0.00 | 0.00 | 0.00 | 18 | 1002.0 |
| 20260504215215 | 19 | 327 | 9.7 | 19.3 | 0.00 | 0.00 | 0.00 | 17 | 1002.0 |
| 20260504214529 | 19 | 44 | 11.3 | 20.9 | 0.00 | 0.00 | 0.00 | 18 | 1002.2 |
| 20260504214029 | 18 | 55 | 11.3 | 25.7 | 0.00 | 0.00 | 0.00 | 18 | 1002.3 |
| 20260504213529 | 19 | 327 | 11.3 | 25.7 | 0.00 | 0.00 | 0.00 | 18 | 1002.5 |
| 20260504213029 | 19 | 302 | 16.1 | 29.0 | 0.00 | 0.00 | 0.00 | 17 | 1002.5 |
| 20260504212528 | 20 | 325 | 12.9 | 29.0 | 0.00 | 0.00 | 0.00 | 16 | 1002.6 |
| 20260504212029 | 20 | 12 | 6.4 | 19.3 | 0.00 | 0.00 | 0.00 | 16 | 1002.6 |
| 20260504211529 | 20 | 222 | 8.0 | 32.2 | 0.00 | 0.00 | 0.00 | 16 | 1002.6 |
| 20260504211029 | 20 | 265 | 12.9 | 32.2 | 0.00 | 0.00 | 0.00 | 16 | 1002.6 |
| 20260504210529 | 19 | 24 | 16.1 | 33.8 | 0.00 | 0.00 | 0.00 | 16 | 1002.8 |
| 20260504210029 | 19 | 318 | 14.5 | 33.8 | 0.00 | 0.00 | 0.00 | 17 | 1002.8 |
| 20260504205715 | 19 | 346 | 9.7 | 22.5 | 0.00 | 0.00 | 0.00 | 17 | 1002.9 |
| 20260504205029 | 18 | 250 | 12.9 | 25.7 | 0.00 | 0.00 | 0.00 | 16 | 1002.9 |
| 20260504204529 | 19 | 308 | 11.3 | 25.7 | 0.00 | 0.00 | 0.00 | 15 | 1003.0 |
| 20260504204029 | 19 | 292 | 11.3 | 22.5 | 0.00 | 0.00 | 0.00 | 16 | 1003.0 |
| 20260504203530 | 19 | 279 | 14.5 | 24.1 | 0.00 | 0.00 | 0.00 | 15 | 1003.1 |
| 20260504203030 | 20 | 18 | 14.5 | 24.1 | 0.00 | 0.00 | 0.00 | 16 | 1003.1 |
| 20260504202530 | 19 | 272 | 11.3 | 22.5 | 0.00 | 0.00 | 0.00 | 17 | 1003.1 |
| 20260504202029 | 20 | 250 | 9.7 | 25.7 | 0.00 | 0.00 | 0.00 | 16 | 1003.2 |
| 20260504201529 | 19 | 262 | 8.0 | 25.7 | 0.00 | 0.00 | 0.00 | 17 | 1003.4 |
| 20260504201029 | 19 | 173 | 8.0 | 19.3 | 0.00 | 0.00 | 0.00 | 17 | 1003.4 |
| 20260504200528 | 18 | 56 | 9.7 | 19.3 | 0.00 | 0.00 | 0.00 | 17 | 1003.6 |
| 20260504200214 | 18 | 70 | 11.3 | 19.3 | 0.00 | 0.00 | 0.00 | 17 | 1003.6 |
| 20260504195530 | 18 | 333 | 11.3 | 20.9 | 0.00 | 0.00 | 0.00 | 17 | 1003.7 |
| 20260504195030 | 19 | 296 | 12.9 | 20.9 | 0.00 | 0.00 | 0.00 | 17 | 1003.7 |
| 20260504194530 | 19 | 336 | 11.3 | 20.9 | 0.00 | 0.00 | 0.00 | 18 | 1003.6 |
| 20260504194214 | 19 | 15 | 9.7 | 20.9 | 0.00 | 0.00 | 0.00 | 17 | 1003.8 |
| 20260504193531 | 19 | 281 | 9.7 | 20.9 | 0.00 | 0.00 | 0.00 | 17 | 1003.7 |
| 20260504193030 | 18 | 346 | 9.7 | 20.9 | 0.00 | 0.00 | 0.00 | 18 | 1004.0 |
| 20260504192530 | 18 | 291 | 8.0 | 20.9 | 0.00 | 0.00 | 0.00 | 18 | 1004.0 |
| 20260504192030 | 18 | 329 | 9.7 | 22.5 | 0.00 | 0.00 | 0.00 | 18 | 1004.1 |
| 20260504191530 | 18 | 288 | 12.9 | 22.5 | 0.00 | 0.00 | 0.00 | 18 | 1004.2 |
| 20260504191216 | 18 | 311 | 11.3 | 24.1 | 0.00 | 0.00 | 0.00 | 17 | 1004.2 |
| 20260504190534 | 18 | 53 | 12.9 | 25.7 | 0.00 | 0.00 | 0.00 | 18 | 1004.2 |
| 20260504190030 | 18 | 329 | 14.5 | 25.7 | 0.00 | 0.00 | 0.00 | 18 | 1004.4 |
| 20260504185532 | 19 | 50 | 9.7 | 24.1 | 0.00 | 0.00 | 0.00 | 18 | 1004.4 |
| 20260504185030 | 18 | 14 | 6.4 | 19.3 | 0.00 | 0.00 | 0.00 | 18 | 1004.4 |
| 20260504184530 | 18 | 231 | 6.4 | 19.3 | 0.00 | 0.00 | 0.00 | 20 | 1004.7 |
| 20260504184216 | 18 | 286 | 9.7 | 19.3 | 0.00 | 0.00 | 0.00 | 19 | 1004.8 |
| 20260504183715 | 18 | 337 | 11.3 | 19.3 | 0.00 | 0.00 | 0.00 | 19 | 1004.8 |
| 20260504183031 | 18 | 299 | 11.3 | 20.9 | 0.00 | 0.00 | 0.00 | 20 | 1004.8 |
| 20260504182715 | 17 | 241 | 11.3 | 22.5 | 0.00 | 0.00 | 0.00 | 19 | 1004.9 |
| 20260504182031 | 18 | 317 | 8.0 | 22.5 | 0.00 | 0.00 | 0.00 | 19 | 1005.0 |
| 20260504181530 | 18 | 245 | 6.4 | 22.5 | 0.00 | 0.00 | 0.00 | 19 | 1005.0 |
| 20260504181030 | 18 | 342 | 4.8 | 22.5 | 0.00 | 0.00 | 0.00 | 20 | 1005.0 |
| 20260504180716 | 18 | 261 | 4.8 | 17.7 | 0.00 | 0.00 | 0.00 | 20 | 1005.2 |
| 20260504180134 | 17 | 217 | 6.4 | 14.5 | 0.00 | 0.00 | 0.00 | 21 | 1005.3 |
| 20260504175531 | 17 | 273 | 4.8 | 14.5 | 0.00 | 0.00 | 0.00 | 20 | 1005.3 |
| 20260504175030 | 17 | 284 | 4.8 | 14.5 | 0.00 | 0.00 | 0.00 | 21 | 1005.4 |
| 20260504174529 | 17 | 29 | 8.0 | 16.1 | 0.00 | 0.00 | 0.00 | 21 | 1005.4 |
| 20260504174030 | 17 | 88 | 6.4 | 16.1 | 0.00 | 0.00 | 0.00 | 21 | 1005.5 |
| 20260504173531 | 17 | 32 | 3.2 | 9.7 | 0.00 | 0.00 | 0.00 | 21 | 1005.7 |
| 20260504173215 | 18 | 59 | 3.2 | 12.9 | 0.00 | 0.00 | 0.00 | 22 | 1005.5 |
| 20260504172528 | 17 | 233 | 6.4 | 12.9 | 0.00 | 0.00 | 0.00 | 23 | 1005.7 |
| 20260504172030 | 17 | 73 | 6.4 | 12.9 | 0.00 | 0.00 | 0.00 | 24 | 1005.7 |
| 20260504171713 | 17 | 96 | 6.4 | 17.7 | 0.00 | 0.00 | 0.00 | 23 | 1005.7 |